Riachinho, Brazil
Current Conditions -  °F | °C
As of 12:00 PM on Friday 31 Oct 2014 (Local Time) from SBIZ Reporting Station
Clear Clear  
Wind Chill: 88°   Ceiling: Unl
Heat Index: 94°   Visibility: 6mi
Dew Point: 72°   Wind: 10mph
Humidity: 58%   Direction: 70°ENE
Pressure: 29.88"   Gusts: NA
Location:  6.44°S, 48.14°W
Report Text: SBIZ 311500Z 07009KT CAVOK 31/22 Q1012
Loading
Personal Weather Stations






























Interactive Weather Map New forecast layout! Learn more

10-Day Weather Forecast

Advertisements
Track Severe Weather on mobile